Time;durP1;ratioP1;P1;durP2;ratioP2;P2;SDS_P1;SDS_P2;PMS_P1;PMS_P2;Temp;Humidity;BMP_temperature;BMP_pressure;BME280_temperature;BME280_humidity;BME280_pressure;Samples;Min_cycle;Max_cycle;Signal;HPM_P1;HPM_P2
2023/03/26 00:01:08;;;;;;;;;;;9.70;1.00;;;;;;5180720;28;19928;-70
2023/03/26 00:03:39;;;;;;;;;;;9.60;1.00;;;;;;5155639;28;19921;-69
2023/03/26 00:06:15;;;;;;;;;;;9.60;99.90;;;;;;5184137;28;19977;-69
2023/03/26 00:08:49;;;;;;;;;;;9.70;99.90;;;;;;5151427;28;19953;-70
2023/03/26 00:11:34;;;;;;;;;;;9.80;99.90;;;;;;5164212;28;19917;-71
2023/03/26 00:14:12;;;;;;;;;;;9.60;99.90;;;;;;5170747;28;20207;-69
2023/03/26 00:16:44;;;;;;;;;;;9.70;99.90;;;;;;5167136;28;20332;-68
2023/03/26 00:19:17;;;;;;;;;;;9.60;99.90;;;;;;5188706;28;19910;-70
2023/03/26 00:21:52;;;;;;;;;;;9.60;99.90;;;;;;5166848;28;19902;-70
2023/03/26 00:24:29;;;;;;;;;;;9.70;99.90;;;;;;5183090;28;19951;-68
2023/03/26 00:27:07;;;;;;;;;;;9.60;99.90;;;;;;5165041;28;19928;-70
2023/03/26 00:29:47;;;;;;;;;;;9.80;99.90;;;;;;5157387;28;19920;-68
2023/03/26 00:32:20;;;;;;;;;;;9.80;99.90;;;;;;5127005;28;20424;-68
2023/03/26 00:34:57;;;;;;;;;;;9.80;99.90;;;;;;5142224;28;20293;-68
2023/03/26 00:37:32;;;;;;;;;;;9.80;94.20;;;;;;5155593;28;19924;-71
2023/03/26 00:40:09;;;;;;;;;;;9.80;40.40;;;;;;5179749;28;19917;-70
2023/03/26 00:42:41;;;;;;;;;;;9.90;1.00;;;;;;5170485;28;20573;-70
2023/03/26 00:45:12;;;;;;;;;;;9.90;1.00;;;;;;5168361;28;19923;-68
2023/03/26 00:47:46;;;;;;;;;;;9.80;1.00;;;;;;5210820;28;19928;-68
2023/03/26 00:50:23;;;;;;;;;;;9.90;1.00;;;;;;5158740;28;20501;-69
2023/03/26 00:52:54;;;;;;;;;;;10.00;1.00;;;;;;5177312;28;19915;-69
2023/03/26 00:55:28;;;;;;;;;;;9.90;1.00;;;;;;5192695;28;20227;-71
2023/03/26 00:58:03;;;;;;;;;;;9.80;1.00;;;;;;5179952;28;19924;-71
2023/03/26 01:00:43;;;;;;;;;;;9.90;1.00;;;;;;5168722;28;20233;-70
2023/03/26 01:03:18;;;;;;;;;;;9.90;1.00;;;;;;5249808;22;19932;-67
2023/03/26 01:06:06;;;;;;;;;;;9.90;1.00;;;;;;5190359;28;20269;-67
2023/03/26 01:08:45;;;;;;;;;;;9.90;1.00;;;;;;5185349;28;19912;-66
2023/03/26 01:11:20;;;;;;;;;;;10.00;1.00;;;;;;5180517;28;19924;-65
2023/03/26 01:13:56;;;;;;;;;;;9.90;1.00;;;;;;5137283;28;19917;-66
2023/03/26 01:16:36;;;;;;;;;;;9.80;1.00;;;;;;5193031;28;19916;-69
2023/03/26 01:19:15;;;;;;;;;;;9.80;1.00;;;;;;5171940;28;19917;-63
2023/03/26 01:21:46;;;;;;;;;;;10.00;1.00;;;;;;5140101;28;19928;-66
2023/03/26 01:24:17;;;;;;;;;;;9.90;1.00;;;;;;5172542;28;19916;-66
2023/03/26 01:26:51;;;;;;;;;;;9.80;1.00;;;;;;5174900;28;19924;-69
2023/03/26 01:29:38;;;;;;;;;;;10.00;1.00;;;;;;5158821;28;19923;-65
2023/03/26 01:32:40;;;;;;;;;;;9.90;1.00;;;;;;5184564;28;19923;-66
2023/03/26 01:35:42;;;;;;;;;;;9.90;1.00;;;;;;5192694;28;19909;-67
2023/03/26 01:38:26;;;;;;;;;;;9.80;1.00;;;;;;5192119;28;20251;-68
2023/03/26 01:41:10;;;;;;;;;;;9.90;1.00;;;;;;5190942;28;19917;-66
2023/03/26 01:43:58;;;;;;;;;;;9.90;1.00;;;;;;5159077;28;19917;-67
2023/03/26 01:46:34;;;;;;;;;;;9.90;1.00;;;;;;5148593;28;19923;-63
2023/03/26 01:49:11;;;;;;;;;;;10.00;1.00;;;;;;5143175;28;19913;-69
2023/03/26 01:51:43;;;;;;;;;;;10.10;1.00;;;;;;5190188;28;20284;-68
2023/03/26 01:54:19;;;;;;;;;;;10.10;1.00;;;;;;5195034;28;20408;-66
2023/03/26 01:56:59;;;;;;;;;;;10.00;1.00;;;;;;5168893;28;19940;-66
2023/03/26 01:59:46;;;;;;;;;;;10.00;1.00;;;;;;5171283;28;19916;-69
2023/03/26 02:02:37;;;;;;;;;;;9.80;1.00;;;;;;5178899;28;19921;-62
2023/03/26 02:05:17;;;;;;;;;;;9.80;1.00;;;;;;5160061;28;20224;-67
2023/03/26 02:07:57;;;;;;;;;;;9.90;1.00;;;;;;5153755;28;20271;-66
2023/03/26 02:10:37;;;;;;;;;;;9.90;1.00;;;;;;5170647;28;19909;-69
2023/03/26 02:13:14;;;;;;;;;;;9.80;1.00;;;;;;5152739;28;19909;-67
2023/03/26 02:16:01;;;;;;;;;;;9.70;45.30;;;;;;5155876;28;20259;-66
2023/03/26 02:18:38;;;;;;;;;;;9.90;64.30;;;;;;5165094;28;19921;-65
2023/03/26 02:21:19;;;;;;;;;;;9.80;99.90;;;;;;5154704;28;19923;-65
2023/03/26 02:24:01;;;;;;;;;;;9.90;72.10;;;;;;5159326;28;19929;-65
2023/03/26 02:26:38;;;;;;;;;;;9.90;66.90;;;;;;5155115;28;19910;-67
2023/03/26 02:29:12;;;;;;;;;;;9.80;99.90;;;;;;5156371;28;19918;-68
2023/03/26 02:31:49;;;;;;;;;;;9.80;99.90;;;;;;5140723;28;20328;-68
2023/03/26 02:34:23;;;;;;;;;;;10.00;24.80;;;;;;5144044;28;19923;-66
2023/03/26 02:36:57;;;;;;;;;;;9.90;36.80;;;;;;5158453;28;20562;-69
2023/03/26 02:39:28;;;;;;;;;;;9.90;1.00;;;;;;5126392;28;19917;-70
2023/03/26 02:42:00;;;;;;;;;;;9.90;1.00;;;;;;5162925;28;19947;-67
2023/03/26 02:44:32;;;;;;;;;;;9.90;1.00;;;;;;5176822;28;19913;-68
2023/03/26 02:47:06;;;;;;;;;;;9.90;1.00;;;;;;5173643;28;20020;-69
2023/03/26 02:49:43;;;;;;;;;;;9.80;1.00;;;;;;5156623;28;19917;-67
2023/03/26 02:52:17;;;;;;;;;;;9.80;48.60;;;;;;5136054;28;20257;-64
2023/03/26 02:54:49;;;;;;;;;;;9.80;99.90;;;;;;5171465;28;19935;-65
2023/03/26 02:57:23;;;;;;;;;;;9.70;99.90;;;;;;5163125;28;19921;-65
2023/03/26 02:59:57;;;;;;;;;;;9.60;99.90;;;;;;5141826;28;19913;-66
2023/03/26 03:02:31;;;;;;;;;;;9.70;99.90;;;;;;5170595;28;19928;-70
2023/03/26 03:05:04;;;;;;;;;;;9.60;99.90;;;;;;5148081;28;19925;-66
2023/03/26 03:07:39;;;;;;;;;;;9.50;99.90;;;;;;5159312;28;19913;-69
2023/03/26 03:10:12;;;;;;;;;;;9.70;99.90;;;;;;5167849;28;19917;-66
2023/03/26 03:12:44;;;;;;;;;;;9.60;99.90;;;;;;5183538;28;19918;-70
2023/03/26 03:15:18;;;;;;;;;;;9.50;99.90;;;;;;5154461;28;19921;-69
2023/03/26 03:17:52;;;;;;;;;;;9.50;99.90;;;;;;5126036;28;19923;-66
2023/03/26 03:20:26;;;;;;;;;;;9.50;99.90;;;;;;5176371;28;19923;-65
2023/03/26 03:22:57;;;;;;;;;;;9.60;99.90;;;;;;5158258;28;19914;-70
2023/03/26 03:25:32;;;;;;;;;;;9.50;99.90;;;;;;5174415;28;20032;-65
2023/03/26 03:28:03;;;;;;;;;;;9.50;1.00;;;;;;5147898;28;19919;-70
2023/03/26 03:30:35;;;;;;;;;;;9.40;1.00;;;;;;5194283;28;19920;-68
2023/03/26 03:33:19;;;;;;;;;;;9.30;1.00;;;;;;5187431;28;19947;-67
2023/03/26 03:35:50;;;;;;;;;;;9.40;1.00;;;;;;5143310;28;19913;-68
2023/03/26 03:38:26;;;;;;;;;;;9.40;1.00;;;;;;5157268;28;19913;-70
2023/03/26 03:40:57;;;;;;;;;;;9.40;1.00;;;;;;5126108;28;19917;-69
2023/03/26 03:43:39;;;;;;;;;;;9.40;1.00;;;;;;5140797;28;20283;-64
2023/03/26 03:46:12;;;;;;;;;;;9.30;1.00;;;;;;5156747;28;20157;-66
2023/03/26 03:48:49;;;;;;;;;;;9.30;1.00;;;;;;5141484;28;19913;-69
2023/03/26 03:51:26;;;;;;;;;;;9.20;1.00;;;;;;5141039;28;20179;-66
2023/03/26 03:54:00;;;;;;;;;;;9.20;1.00;;;;;;5139645;28;19917;-67
2023/03/26 03:56:31;;;;;;;;;;;9.40;1.00;;;;;;5156347;28;19917;-67
2023/03/26 03:59:07;;;;;;;;;;;9.40;1.00;;;;;;5156689;28;19921;-68
2023/03/26 04:01:41;;;;;;;;;;;9.40;1.00;;;;;;5169593;28;20439;-68
2023/03/26 04:04:15;;;;;;;;;;;9.40;1.00;;;;;;5133507;28;19913;-66
2023/03/26 04:06:48;;;;;;;;;;;9.40;1.00;;;;;;5137586;28;19927;-68
2023/03/26 04:09:21;;;;;;;;;;;9.40;1.00;;;;;;5151374;28;19917;-66
2023/03/26 04:11:55;;;;;;;;;;;9.40;99.90;;;;;;5156818;28;20201;-65
2023/03/26 04:14:26;;;;;;;;;;;9.50;99.90;;;;;;5157694;28;19917;-65
2023/03/26 04:17:01;;;;;;;;;;;9.50;99.90;;;;;;5132164;28;20263;-66
2023/03/26 04:19:33;;;;;;;;;;;9.50;99.90;;;;;;5157766;28;19917;-69
2023/03/26 04:22:10;;;;;;;;;;;9.50;99.90;;;;;;5157799;28;19921;-69
2023/03/26 04:24:42;;;;;;;;;;;9.60;99.90;;;;;;5164699;28;20113;-70
2023/03/26 04:27:16;;;;;;;;;;;9.60;99.90;;;;;;5142561;28;19933;-66
2023/03/26 04:29:51;;;;;;;;;;;9.70;99.90;;;;;;5147176;28;19914;-62
2023/03/26 04:32:28;;;;;;;;;;;9.60;99.90;;;;;;5171699;28;19941;-65
2023/03/26 04:35:02;;;;;;;;;;;9.60;99.90;;;;;;5141056;28;20280;-66
2023/03/26 04:37:38;;;;;;;;;;;9.60;99.90;;;;;;5124173;28;19914;-67
2023/03/26 04:40:19;;;;;;;;;;;9.70;99.90;;;;;;5124196;28;19914;-65
2023/03/26 04:42:57;;;;;;;;;;;9.60;99.90;;;;;;5171887;28;20277;-65
2023/03/26 04:45:30;;;;;;;;;;;9.60;92.40;;;;;;5143799;28;19909;-69
2023/03/26 04:48:01;;;;;;;;;;;9.60;58.60;;;;;;5123420;28;20460;-68
2023/03/26 04:50:36;;;;;;;;;;;9.50;42.60;;;;;;5166661;28;19920;-68
2023/03/26 04:53:17;;;;;;;;;;;9.60;1.00;;;;;;5121478;28;19922;-68
2023/03/26 04:56:15;;;;;;;;;;;9.60;27.90;;;;;;5172669;28;19917;-69
2023/03/26 04:58:49;;;;;;;;;;;9.50;71.30;;;;;;5128231;28;19910;-63
2023/03/26 05:01:27;;;;;;;;;;;9.50;99.90;;;;;;5147997;28;20360;-65
2023/03/26 05:04:01;;;;;;;;;;;9.40;99.90;;;;;;5124493;28;19917;-67
2023/03/26 05:06:33;;;;;;;;;;;9.40;99.90;;;;;;5163436;28;19913;-69
2023/03/26 05:09:07;;;;;;;;;;;9.40;99.90;;;;;;5155368;28;20091;-67
2023/03/26 05:11:39;;;;;;;;;;;9.40;99.90;;;;;;5166174;28;19921;-67
2023/03/26 05:14:14;;;;;;;;;;;9.50;99.90;;;;;;5155941;28;20488;-68
2023/03/26 05:16:47;;;;;;;;;;;9.50;99.90;;;;;;5121378;28;19923;-70
2023/03/26 05:19:18;;;;;;;;;;;9.60;99.90;;;;;;5152538;28;19917;-67
2023/03/26 05:21:51;;;;;;;;;;;9.60;99.90;;;;;;5151970;28;19917;-65
2023/03/26 05:24:31;;;;;;;;;;;9.70;97.40;;;;;;5153671;28;19964;-64
2023/03/26 05:27:02;;;;;;;;;;;9.70;99.90;;;;;;5119660;28;19918;-68
2023/03/26 05:29:34;;;;;;;;;;;9.80;99.90;;;;;;5163710;28;19921;-69
2023/03/26 05:32:08;;;;;;;;;;;9.80;99.90;;;;;;5141792;28;19925;-67
2023/03/26 05:34:40;;;;;;;;;;;9.80;99.90;;;;;;5163611;28;20307;-66
2023/03/26 05:37:16;;;;;;;;;;;9.90;99.90;;;;;;5162248;28;19928;-66
2023/03/26 05:39:56;;;;;;;;;;;9.80;99.90;;;;;;5166287;28;19922;-66
2023/03/26 05:42:29;;;;;;;;;;;9.90;99.90;;;;;;5134588;28;20117;-68
2023/03/26 05:45:00;;;;;;;;;;;9.90;99.90;;;;;;5134998;28;19919;-68
2023/03/26 05:47:37;;;;;;;;;;;9.90;99.90;;;;;;5149450;28;19927;-67
2023/03/26 05:50:09;;;;;;;;;;;9.90;99.90;;;;;;5152249;28;19910;-66
2023/03/26 05:52:40;;;;;;;;;;;10.00;99.90;;;;;;5118664;28;19909;-64
2023/03/26 05:55:17;;;;;;;;;;;10.00;99.90;;;;;;5150758;28;19910;-66
2023/03/26 05:57:48;;;;;;;;;;;9.90;99.90;;;;;;5148585;28;20429;-68
2023/03/26 06:00:23;;;;;;;;;;;9.80;99.90;;;;;;5157232;28;19910;-69
2023/03/26 06:02:57;;;;;;;;;;;9.80;99.90;;;;;;5138828;28;19929;-64
2023/03/26 06:05:36;;;;;;;;;;;9.70;99.90;;;;;;5124771;28;20133;-64
2023/03/26 06:08:10;;;;;;;;;;;9.70;99.90;;;;;;5127763;28;20232;-70
2023/03/26 06:10:41;;;;;;;;;;;9.70;99.90;;;;;;5154044;28;19917;-70
2023/03/26 06:13:15;;;;;;;;;;;9.60;99.90;;;;;;5171612;28;20287;-68
2023/03/26 06:15:49;;;;;;;;;;;9.60;1.00;;;;;;5135381;28;19917;-66
2023/03/26 06:18:21;;;;;;;;;;;9.60;1.00;;;;;;5163007;28;19921;-66
2023/03/26 06:20:54;;;;;;;;;;;9.70;1.00;;;;;;5169266;28;19921;-69
2023/03/26 06:23:25;;;;;;;;;;;9.70;1.00;;;;;;5165117;28;20106;-67
2023/03/26 06:26:05;;;;;;;;;;;9.70;1.00;;;;;;5143814;28;19931;-69
2023/03/26 06:28:36;;;;;;;;;;;9.60;1.00;;;;;;5134588;28;19921;-68
2023/03/26 06:31:10;;;;;;;;;;;9.60;1.00;;;;;;5147888;28;19924;-72
2023/03/26 06:33:44;;;;;;;;;;;9.60;1.00;;;;;;5167301;28;19926;-68
2023/03/26 06:36:16;;;;;;;;;;;9.60;1.00;;;;;;5132466;28;19928;-70
2023/03/26 06:38:50;;;;;;;;;;;9.70;1.00;;;;;;5168673;28;19910;-67
2023/03/26 06:41:24;;;;;;;;;;;9.90;1.00;;;;;;5107395;28;20125;-67
2023/03/26 06:43:58;;;;;;;;;;;9.90;1.00;;;;;;5139168;28;19913;-69
2023/03/26 06:46:34;;;;;;;;;;;9.90;1.00;;;;;;5164394;28;19921;-68
2023/03/26 06:49:06;;;;;;;;;;;10.00;1.00;;;;;;5141798;28;19917;-68
2023/03/26 06:51:39;;;;;;;;;;;10.10;1.00;;;;;;5169077;28;19913;-64
2023/03/26 06:54:11;;;;;;;;;;;10.30;1.00;;;;;;5170374;28;20158;-64
2023/03/26 06:56:42;;;;;;;;;;;10.40;1.00;;;;;;5169185;28;20109;-63
2023/03/26 06:59:13;;;;;;;;;;;10.50;99.90;;;;;;5152087;28;19932;-65
2023/03/26 07:01:45;;;;;;;;;;;10.60;99.90;;;;;;5120136;28;19921;-67
2023/03/26 07:04:16;;;;;;;;;;;10.50;99.90;;;;;;5148395;28;19917;-65
2023/03/26 07:06:48;;;;;;;;;;;10.60;99.90;;;;;;5188562;28;19944;-66
2023/03/26 07:09:19;;;;;;;;;;;10.60;99.90;;;;;;5168091;28;19952;-69
2023/03/26 07:11:51;;;;;;;;;;;10.70;99.90;;;;;;5171736;28;20247;-67
2023/03/26 07:14:31;;;;;;;;;;;10.90;44.10;;;;;;5158264;28;20024;-65
2023/03/26 07:17:02;;;;;;;;;;;11.10;1.00;;;;;;5153725;28;19928;-62
2023/03/26 07:19:36;;;;;;;;;;;11.50;1.00;;;;;;5172151;28;19955;-63
2023/03/26 07:22:28;;;;;;;;;;;11.90;1.00;;;;;;5155994;28;20020;-63
2023/03/26 07:25:05;;;;;;;;;;;12.20;99.90;;;;;;5170863;28;19921;-60
2023/03/26 07:27:46;;;;;;;;;;;12.70;51.90;;;;;;5173014;28;19913;-61
2023/03/26 07:31:02;;;;;;;;;;;13.00;99.90;;;;;;5153434;28;19924;-64
2023/03/26 07:33:40;;;;;;;;;;;13.10;99.90;;;;;;5165382;28;20298;-65
2023/03/26 07:36:36;;;;;;;;;;;13.10;1.00;;;;;;5171035;28;20291;-61
2023/03/26 07:39:40;;;;;;;;;;;12.90;1.00;;;;;;5174465;28;19912;-65
2023/03/26 07:42:38;;;;;;;;;;;12.90;1.00;;;;;;5158469;28;19917;-69
2023/03/26 07:45:24;;;;;;;;;;;12.80;1.00;;;;;;5155703;28;20023;-66
2023/03/26 07:47:58;;;;;;;;;;;12.60;1.00;;;;;;5164623;28;19921;-63
2023/03/26 07:50:29;;;;;;;;;;;12.50;1.00;;;;;;5161955;28;19910;-67
2023/03/26 07:53:01;;;;;;;;;;;12.40;1.00;;;;;;5164654;28;19921;-70
2023/03/26 07:55:39;;;;;;;;;;;12.40;99.90;;;;;;5151632;28;19944;-71
2023/03/26 07:58:31;;;;;;;;;;;12.30;99.90;;;;;;5151220;28;20414;-68
2023/03/26 08:01:12;;;;;;;;;;;12.40;1.00;;;;;;5163155;28;19914;-67
2023/03/26 08:04:10;;;;;;;;;;;12.60;99.90;;;;;;5190253;28;19914;-63
2023/03/26 08:07:04;;;;;;;;;;;12.70;99.90;;;;;;5132163;28;20206;-65
2023/03/26 08:09:48;;;;;;;;;;;12.70;99.90;;;;;;5158215;28;20181;-69
2023/03/26 08:12:50;;;;;;;;;;;12.60;99.90;;;;;;5174015;28;19910;-69
2023/03/26 08:15:31;;;;;;;;;;;13.00;99.90;;;;;;5174044;28;20062;-68
2023/03/26 08:18:28;;;;;;;;;;;13.30;33.90;;;;;;5172548;28;20108;-67
2023/03/26 08:21:09;;;;;;;;;;;13.30;1.00;;;;;;5158291;28;19916;-65
2023/03/26 08:24:05;;;;;;;;;;;13.70;1.00;;;;;;5142700;28;19910;-65
2023/03/26 08:26:57;;;;;;;;;;;13.90;1.00;;;;;;5138995;28;19926;-65
2023/03/26 08:29:50;;;;;;;;;;;14.00;99.90;;;;;;5157922;28;19909;-69
2023/03/26 08:32:21;;;;;;;;;;;14.60;99.90;;;;;;5141627;28;19916;-67
2023/03/26 08:34:56;;;;;;;;;;;15.10;99.90;;;;;;5174862;28;19935;-64
2023/03/26 08:37:30;;;;;;;;;;;15.10;6.30;;;;;;5157721;28;19910;-68
2023/03/26 08:40:02;;;;;;;;;;;15.20;1.00;;;;;;5175067;28;19916;-68
2023/03/26 08:42:39;;;;;;;;;;;15.00;1.00;;;;;;5156918;28;19916;-71
2023/03/26 08:45:10;;;;;;;;;;;15.20;1.00;;;;;;5174032;28;20206;-63
2023/03/26 08:48:11;;;;;;;;;;;15.30;1.00;;;;;;5172949;28;19910;-65
2023/03/26 08:51:09;;;;;;;;;;;15.20;1.00;;;;;;5157219;28;19910;-66
2023/03/26 08:54:14;;;;;;;;;;;15.70;1.00;;;;;;5174660;28;19916;-70
2023/03/26 08:57:30;;;;;;;;;;;15.70;99.90;;;;;;5157288;28;19916;-65
2023/03/26 09:00:20;;;;;;;;;;;15.70;99.90;;;;;;5158584;28;19916;-68
2023/03/26 09:02:55;;;;;;;;;;;15.90;99.90;;;;;;5173339;28;19913;-63
2023/03/26 09:06:02;;;;;;;;;;;15.70;99.90;;;;;;5142427;28;20091;-69
2023/03/26 09:09:10;;;;;;;;;;;15.20;99.90;;;;;;5170683;28;20255;-63
2023/03/26 09:12:07;;;;;;;;;;;15.00;99.90;;;;;;5110940;28;19921;-68
2023/03/26 09:14:38;;;;;;;;;;;15.20;99.90;;;;;;5159221;28;20114;-63
2023/03/26 09:17:13;;;;;;;;;;;15.30;99.90;;;;;;5156983;28;19909;-69
2023/03/26 09:20:07;;;;;;;;;;;15.60;79.10;;;;;;5134389;28;19925;-67
2023/03/26 09:23:05;;;;;;;;;;;15.90;86.20;;;;;;5133641;28;19917;-67
2023/03/26 09:26:01;;;;;;;;;;;16.10;1.00;;;;;;5169990;28;19924;-65
2023/03/26 09:29:00;;;;;;;;;;;16.50;99.90;;;;;;5151193;28;20332;-67
2023/03/26 09:31:41;;;;;;;;;;;16.50;51.80;;;;;;5151437;28;19917;-65
2023/03/26 09:34:31;;;;;;;;;;;16.70;99.90;;;;;;5152259;28;19909;-67
2023/03/26 09:37:25;;;;;;;;;;;17.20;33.80;;;;;;5168932;28;19924;-69
2023/03/26 09:40:15;;;;;;;;;;;17.70;99.90;;;;;;5170920;28;20156;-65
2023/03/26 09:43:09;;;;;;;;;;;17.70;1.00;;;;;;5152688;28;19909;-68
2023/03/26 09:46:01;;;;;;;;;;;17.90;1.00;;;;;;5152567;28;19917;-67
2023/03/26 09:49:00;;;;;;;;;;;18.00;1.00;;;;;;5184732;28;19917;-65
2023/03/26 09:51:47;;;;;;;;;;;17.70;1.00;;;;;;5164747;28;19917;-66
2023/03/26 09:54:24;;;;;;;;;;;17.60;1.00;;;;;;5184778;28;19918;-62
2023/03/26 09:57:19;;;;;;;;;;;17.70;99.90;;;;;;5168312;28;20371;-68
2023/03/26 10:00:06;;;;;;;;;;;18.00;9.30;;;;;;5145163;28;19917;-69
2023/03/26 10:02:44;;;;;;;;;;;18.40;99.90;;;;;;5167332;28;19914;-65
2023/03/26 10:05:24;;;;;;;;;;;19.00;99.90;;;;;;5109393;28;20460;-68
2023/03/26 10:08:09;;;;;;;;;;;18.90;99.90;;;;;;5164240;28;19926;-64
2023/03/26 10:11:09;;;;;;;;;;;17.70;99.90;;;;;;5169821;28;19921;-62
2023/03/26 10:14:09;;;;;;;;;;;18.00;1.00;;;;;;5168235;28;19963;-69
2023/03/26 10:17:03;;;;;;;;;;;18.50;99.90;;;;;;5166757;28;20039;-64
2023/03/26 10:19:48;;;;;;;;;;;18.00;99.90;;;;;;5169100;28;19927;-67
2023/03/26 10:22:44;;;;;;;;;;;17.50;1.00;;;;;;5152727;28;19928;-69
2023/03/26 10:25:37;;;;;;;;;;;17.30;99.90;;;;;;5171601;28;20319;-70
2023/03/26 10:28:31;;;;;;;;;;;17.40;1.00;;;;;;5136789;28;19913;-69
2023/03/26 10:31:42;;;;;;;;;;;17.60;1.00;;;;;;5150513;28;19931;-67
2023/03/26 10:34:50;;;;;;;;;;;18.10;1.00;;;;;;5136286;28;19918;-69
2023/03/26 10:37:27;;;;;;;;;;;18.50;1.00;;;;;;5133248;28;19924;-68
2023/03/26 10:40:09;;;;;;;;;;;19.20;99.90;;;;;;5155233;28;19923;-66
2023/03/26 10:43:19;;;;;;;;;;;19.10;1.00;;;;;;5138744;28;19917;-64
2023/03/26 10:46:17;;;;;;;;;;;19.40;1.00;;;;;;5173839;28;19918;-67
2023/03/26 10:49:18;;;;;;;;;;;18.80;1.00;;;;;;5173311;28;19917;-68
2023/03/26 10:52:04;;;;;;;;;;;20.00;1.00;;;;;;5152111;28;20255;-65
2023/03/26 10:54:57;;;;;;;;;;;21.20;1.00;;;;;;5157448;28;19909;-66
2023/03/26 10:58:04;;;;;;;;;;;20.80;1.00;;;;;;5139119;28;21048;-63
2023/03/26 11:00:47;;;;;;;;;;;20.50;1.00;;;;;;5119408;28;19918;-61
2023/03/26 11:03:26;;;;;;;;;;;20.40;1.00;;;;;;5122152;28;19914;-67
2023/03/26 11:06:12;;;;;;;;;;;19.80;1.00;;;;;;5098631;28;19932;-63
2023/03/26 11:08:51;;;;;;;;;;;19.90;1.00;;;;;;5115836;28;19933;-67
2023/03/26 11:11:38;;;;;;;;;;;19.00;1.00;;;;;;5149457;28;19936;-66
2023/03/26 11:14:23;;;;;;;;;;;19.80;99.90;;;;;;5128959;28;19925;-66
2023/03/26 11:17:31;;;;;;;;;;;19.90;99.90;;;;;;5148169;28;19910;-63
2023/03/26 11:20:20;;;;;;;;;;;20.40;1.00;;;;;;5131259;28;19922;-67
2023/03/26 11:23:01;;;;;;;;;;;20.90;1.00;;;;;;5142854;28;20246;-63
2023/03/26 11:25:59;;;;;;;;;;;22.00;1.00;;;;;;5124973;28;19917;-62
2023/03/26 11:28:33;;;;;;;;;;;21.10;1.00;;;;;;5141750;28;19925;-68
2023/03/26 11:31:34;;;;;;;;;;;20.70;1.00;;;;;;5129604;28;19917;-65
2023/03/26 11:34:14;;;;;;;;;;;20.80;99.90;;;;;;5151678;28;19922;-63
2023/03/26 11:36:51;;;;;;;;;;;20.20;99.90;;;;;;5154289;28;19924;-65
2023/03/26 11:39:26;;;;;;;;;;;20.00;1.00;;;;;;5157165;28;19916;-64
2023/03/26 11:42:07;;;;;;;;;;;20.00;1.00;;;;;;5152176;28;19921;-67
2023/03/26 11:44:43;;;;;;;;;;;19.70;1.00;;;;;;5151168;28;20195;-64
2023/03/26 11:47:20;;;;;;;;;;;20.20;1.00;;;;;;5141873;28;19921;-66
2023/03/26 11:49:54;;;;;;;;;;;19.90;99.90;;;;;;5157136;28;20510;-68
2023/03/26 11:52:29;;;;;;;;;;;20.00;1.00;;;;;;5119144;28;19922;-64
2023/03/26 11:55:06;;;;;;;;;;;19.20;1.00;;;;;;5139701;28;19909;-67
2023/03/26 11:57:48;;;;;;;;;;;18.90;1.00;;;;;;5167748;28;19931;-67
2023/03/26 12:00:21;;;;;;;;;;;18.70;1.00;;;;;;5181442;28;19923;-66
2023/03/26 12:03:00;;;;;;;;;;;18.80;1.00;;;;;;5153255;28;20607;-65
2023/03/26 12:05:47;;;;;;;;;;;18.60;29.20;;;;;;5140297;28;19924;-69
2023/03/26 12:08:22;;;;;;;;;;;18.40;1.00;;;;;;5156095;28;19921;-65
2023/03/26 12:11:30;;;;;;;;;;;18.50;1.00;;;;;;5142982;28;20137;-66
2023/03/26 12:14:03;;;;;;;;;;;18.10;99.90;;;;;;5150808;28;19910;-70
2023/03/26 12:16:35;;;;;;;;;;;17.80;99.90;;;;;;5155198;28;19920;-67
2023/03/26 12:19:30;;;;;;;;;;;18.20;1.00;;;;;;5155002;28;19914;-66
2023/03/26 12:22:02;;;;;;;;;;;18.70;1.00;;;;;;5154869;28;19917;-65
2023/03/26 12:24:39;;;;;;;;;;;18.20;1.00;;;;;;5172517;28;19928;-67
2023/03/26 12:27:24;;;;;;;;;;;18.30;99.90;;;;;;5123696;28;20024;-68
2023/03/26 12:30:17;;;;;;;;;;;18.30;1.00;;;;;;5171365;28;19910;-70
2023/03/26 12:33:04;;;;;;;;;;;18.50;99.90;;;;;;5169688;28;20112;-67
2023/03/26 12:35:39;;;;;;;;;;;18.30;1.00;;;;;;5155421;28;19928;-67
2023/03/26 12:38:34;;;;;;;;;;;18.20;99.90;;;;;;5135980;28;19909;-66
2023/03/26 12:41:16;;;;;;;;;;;18.50;99.90;;;;;;5172821;28;19927;-69
2023/03/26 12:43:50;;;;;;;;;;;19.10;99.90;;;;;;5157657;28;19917;-66
2023/03/26 12:46:26;;;;;;;;;;;19.50;1.00;;;;;;5135922;28;19909;-66
2023/03/26 12:49:02;;;;;;;;;;;19.20;1.00;;;;;;5152526;28;20210;-64
2023/03/26 12:52:00;;;;;;;;;;;19.60;99.90;;;;;;5139787;28;19948;-65
2023/03/26 12:54:43;;;;;;;;;;;19.70;1.00;;;;;;5171335;28;19917;-67
2023/03/26 12:57:20;;;;;;;;;;;19.90;1.00;;;;;;5152386;28;20215;-70
2023/03/26 13:00:13;;;;;;;;;;;20.40;1.00;;;;;;5145788;28;19940;-69
2023/03/26 13:03:06;;;;;;;;;;;20.70;1.00;;;;;;5156048;28;19920;-68
2023/03/26 13:05:40;;;;;;;;;;;20.70;1.00;;;;;;5148644;28;20187;-65
2023/03/26 13:08:46;;;;;;;;;;;20.70;1.00;;;;;;5176674;28;19924;-70
2023/03/26 13:11:31;;;;;;;;;;;20.90;99.90;;;;;;5168583;28;20122;-70
2023/03/26 13:14:32;;;;;;;;;;;21.70;1.00;;;;;;5165272;28;19921;-68
2023/03/26 13:17:34;;;;;;;;;;;21.60;99.90;;;;;;5167361;28;20096;-64
2023/03/26 13:20:17;;;;;;;;;;;21.80;1.00;;;;;;5145230;28;19923;-68
2023/03/26 13:23:15;;;;;;;;;;;21.60;1.00;;;;;;5153426;28;20454;-65
2023/03/26 13:26:17;;;;;;;;;;;21.70;99.90;;;;;;5149814;28;19917;-65
2023/03/26 13:29:00;;;;;;;;;;;21.20;99.90;;;;;;5154100;28;19947;-69
2023/03/26 13:31:35;;;;;;;;;;;21.10;72.90;;;;;;5163307;28;19927;-69
2023/03/26 13:34:32;;;;;;;;;;;20.70;99.90;;;;;;5134246;28;19934;-65
2023/03/26 13:37:25;;;;;;;;;;;20.70;1.00;;;;;;5142433;28;19921;-63
2023/03/26 13:40:00;;;;;;;;;;;20.20;1.00;;;;;;5154148;28;20241;-68
2023/03/26 13:42:36;;;;;;;;;;;20.20;1.00;;;;;;5161794;28;19956;-66
2023/03/26 13:45:13;;;;;;;;;;;20.30;99.90;;;;;;5185367;28;19921;-68
2023/03/26 13:47:49;;;;;;;;;;;19.90;99.90;;;;;;5154057;28;19927;-66
2023/03/26 13:50:29;;;;;;;;;;;19.50;99.90;;;;;;5135820;28;19909;-63
2023/03/26 13:53:11;;;;;;;;;;;19.20;99.90;;;;;;5128288;28;19943;-67
2023/03/26 13:55:55;;;;;;;;;;;19.20;42.70;;;;;;5153942;28;19917;-66
2023/03/26 13:58:30;;;;;;;;;;;19.40;1.00;;;;;;5149676;28;19929;-66
2023/03/26 14:01:01;;;;;;;;;;;19.30;1.00;;;;;;5154648;28;19922;-67
2023/03/26 14:03:41;;;;;;;;;;;19.10;1.00;;;;;;5164528;28;20098;-67
2023/03/26 14:06:22;;;;;;;;;;;19.00;1.00;;;;;;5151592;28;19925;-69
2023/03/26 14:09:05;;;;;;;;;;;18.90;1.00;;;;;;5172852;28;19955;-65
2023/03/26 14:12:10;;;;;;;;;;;18.70;1.00;;;;;;5155375;28;20485;-66
2023/03/26 14:14:59;;;;;;;;;;;18.50;1.00;;;;;;5140850;28;19917;-65
2023/03/26 14:17:41;;;;;;;;;;;18.00;1.00;;;;;;5155729;28;19917;-66
2023/03/26 14:20:16;;;;;;;;;;;17.80;99.90;;;;;;5144099;28;19921;-68
2023/03/26 14:22:47;;;;;;;;;;;17.80;99.90;;;;;;5169233;28;19920;-64
2023/03/26 14:25:29;;;;;;;;;;;18.00;99.90;;;;;;5164074;28;20090;-67
2023/03/26 14:28:23;;;;;;;;;;;18.10;1.00;;;;;;5165821;28;19948;-67
2023/03/26 14:31:18;;;;;;;;;;;18.40;1.00;;;;;;5138315;28;20481;-66
2023/03/26 14:34:34;;;;;;;;;;;18.80;99.90;;;;;;5169399;28;20095;-66
2023/03/26 14:37:27;;;;;;;;;;;19.00;1.00;;;;;;5156980;28;19917;-64
2023/03/26 14:40:40;;;;;;;;;;;18.90;1.00;;;;;;5192611;28;19925;-66
2023/03/26 14:43:55;;;;;;;;;;;18.80;1.00;;;;;;5137172;28;19913;-67
2023/03/26 14:46:52;;;;;;;;;;;18.50;1.00;;;;;;5172791;28;19917;-66
2023/03/26 14:49:42;;;;;;;;;;;18.40;1.00;;;;;;5156092;28;19917;-66
2023/03/26 14:52:17;;;;;;;;;;;18.20;1.00;;;;;;5150573;28;19917;-67
2023/03/26 14:54:55;;;;;;;;;;;18.10;1.00;;;;;;5174987;28;19918;-69
2023/03/26 14:58:00;;;;;;;;;;;17.80;1.00;;;;;;5170731;28;19915;-67
2023/03/26 15:01:02;;;;;;;;;;;17.40;99.90;;;;;;5166450;28;20230;-66
2023/03/26 15:04:07;;;;;;;;;;;17.00;1.00;;;;;;5168937;28;19921;-67
2023/03/26 15:07:17;;;;;;;;;;;16.80;1.00;;;;;;5141706;28;19932;-67
2023/03/26 15:10:12;;;;;;;;;;;16.80;1.00;;;;;;5173128;28;19928;-68
2023/03/26 15:13:02;;;;;;;;;;;16.80;1.00;;;;;;5160036;28;19923;-67
2023/03/26 15:15:54;;;;;;;;;;;16.80;1.00;;;;;;5140973;28;19923;-68
2023/03/26 15:18:33;;;;;;;;;;;16.80;1.00;;;;;;5138467;28;20253;-71
2023/03/26 15:21:35;;;;;;;;;;;16.60;1.00;;;;;;5167680;28;19921;-66
2023/03/26 15:24:33;;;;;;;;;;;16.50;1.00;;;;;;5144712;28;19932;-66
2023/03/26 15:27:23;;;;;;;;;;;16.40;99.90;;;;;;5171064;28;19944;-67
2023/03/26 15:30:40;;;;;;;;;;;16.50;1.00;;;;;;5146682;28;19922;-67
2023/03/26 15:33:40;;;;;;;;;;;16.50;1.00;;;;;;5081868;28;19930;-66
2023/03/26 15:36:49;;;;;;;;;;;16.50;99.90;;;;;;5084348;29;19918;-67
2023/03/26 15:40:06;;;;;;;;;;;16.60;1.00;;;;;;5171605;28;20067;-66
2023/03/26 15:43:02;;;;;;;;;;;16.40;1.00;;;;;;5187722;28;19916;-70
2023/03/26 15:45:53;;;;;;;;;;;16.10;1.00;;;;;;5151300;28;19921;-68
2023/03/26 15:48:30;;;;;;;;;;;15.90;1.00;;;;;;5174234;28;19921;-63
2023/03/26 15:51:21;;;;;;;;;;;15.80;1.00;;;;;;5169512;28;20099;-70
2023/03/26 15:54:01;;;;;;;;;;;15.60;1.00;;;;;;5169799;28;19925;-68
2023/03/26 15:56:40;;;;;;;;;;;15.50;1.00;;;;;;5169147;28;20155;-69